createdAt,value
2023-02-13T00:03:05.829Z,11.27
2023-02-13T00:08:32.794Z,10.43
2023-02-13T00:13:59.799Z,10.02
2023-02-13T00:19:33.859Z,10.25
2023-02-13T00:25:00.797Z,9.98
2023-02-13T00:30:28.826Z,10.13
2023-02-13T00:33:09.310Z,10.32
2023-02-13T00:35:55.810Z,10.02
2023-02-13T00:41:23.806Z,9.20
2023-02-13T00:44:10.865Z,10.50
2023-02-13T00:49:37.817Z,9.73
2023-02-13T00:55:04.794Z,9.98
2023-02-13T00:57:45.289Z,9.73
2023-02-13T01:00:31.792Z,10.60
2023-02-13T01:03:12.339Z,9.70
2023-02-13T01:05:59.826Z,10.50
2023-02-13T01:08:54.802Z,10.65
2023-02-13T01:11:41.797Z,9.25
2023-02-13T01:17:08.810Z,10.30
2023-02-13T01:22:35.816Z,9.43
2023-02-13T01:28:02.864Z,9.85
2023-02-13T01:30:49.837Z,10.23
2023-02-13T01:33:30.585Z,9.80
2023-02-13T01:36:14.817Z,9.73
2023-02-13T01:39:01.809Z,9.75
2023-02-13T01:44:57.866Z,8.88
2023-02-13T01:47:46.814Z,9.43
2023-02-13T01:50:51.858Z,9.18
2023-02-13T01:53:44.817Z,9.88
2023-02-13T01:56:53.801Z,9.98
2023-02-13T01:59:51.607Z,9.98
2023-02-13T02:02:40.880Z,9.50
2023-02-13T02:05:32.866Z,9.68
2023-02-13T02:08:16.826Z,9.32
2023-02-13T02:14:17.814Z,8.77
2023-02-13T02:20:06.836Z,9.98
2023-02-13T02:23:09.866Z,9.65
2023-02-13T02:26:33.835Z,9.02
2023-02-13T02:29:39.810Z,9.68
2023-02-13T02:32:33.853Z,9.45
2023-02-13T02:35:57.814Z,10.13
2023-02-13T02:39:03.290Z,9.50
2023-02-13T02:42:09.810Z,9.68
2023-02-13T02:45:02.811Z,9.27
2023-02-13T02:48:43.800Z,9.57
2023-02-13T02:51:50.809Z,9.45
2023-02-13T02:55:02.821Z,9.98
2023-02-13T02:58:27.995Z,9.98
2023-02-13T03:01:53.817Z,10.18
2023-02-13T03:05:05.824Z,9.63
2023-02-13T03:07:52.828Z,9.80
2023-02-13T03:13:49.119Z,9.82
2023-02-13T03:16:56.802Z,9.30
2023-02-13T03:20:05.029Z,9.82
2023-02-13T03:23:17.797Z,9.77
2023-02-13T03:26:50.349Z,9.93
2023-02-13T03:29:58.790Z,9.25
2023-02-13T03:33:15.038Z,9.73
2023-02-13T03:36:25.817Z,9.63
2023-02-13T03:39:24.837Z,9.70
2023-02-13T03:42:14.817Z,9.48
2023-02-13T03:45:55.846Z,10.30
2023-02-13T03:49:05.810Z,9.52
2023-02-13T03:52:03.441Z,9.65
2023-02-13T03:55:22.827Z,9.73
2023-02-13T03:58:45.038Z,9.80
2023-02-13T04:01:35.820Z,9.82
2023-02-13T04:04:25.159Z,10.15
2023-02-13T04:07:15.806Z,10.93
2023-02-13T04:10:19.788Z,10.10
2023-02-13T04:13:27.805Z,9.45
2023-02-13T04:16:24.832Z,10.07
2023-02-13T04:19:07.604Z,9.30
2023-02-13T04:21:53.803Z,9.77
2023-02-13T04:27:22.858Z,9.35
2023-02-13T04:30:09.827Z,9.48
2023-02-13T04:35:36.809Z,9.25
2023-02-13T04:41:03.836Z,9.73
2023-02-13T04:46:30.816Z,9.77
2023-02-13T04:51:57.814Z,10.38
2023-02-13T04:57:24.825Z,9.07
2023-02-13T05:00:04.972Z,10.63
2023-02-13T05:02:51.831Z,9.75
2023-02-13T05:05:31.908Z,9.05
2023-02-13T05:08:18.808Z,9.63
2023-02-13T05:11:05.882Z,9.35
2023-02-13T05:16:26.311Z,9.18
2023-02-13T05:19:13.173Z,9.70
2023-02-13T05:22:11.821Z,9.50
2023-02-13T05:24:58.832Z,10.13
2023-02-13T05:27:45.866Z,9.55
2023-02-13T05:30:25.850Z,9.57
2023-02-13T05:33:12.814Z,9.73
2023-02-13T05:38:39.809Z,10.40
2023-02-13T05:44:06.823Z,9.88
2023-02-13T05:49:34.834Z,10.25
2023-02-13T05:55:01.829Z,9.57
2023-02-13T06:00:28.813Z,10.50
2023-02-13T06:06:03.876Z,9.80
2023-02-13T06:08:43.816Z,10.25
2023-02-13T06:11:30.862Z,10.27
2023-02-13T06:16:51.339Z,10.13
2023-02-13T06:19:37.821Z,10.32
2023-02-13T06:25:04.809Z,10.07
2023-02-13T06:27:45.345Z,10.55
2023-02-13T06:30:32.857Z,10.77
2023-02-13T06:33:13.314Z,11.52
2023-02-13T06:35:59.815Z,11.20
2023-02-13T06:41:26.899Z,11.40
2023-02-13T06:44:14.822Z,10.30
2023-02-13T06:46:54.945Z,11.18
2023-02-13T06:49:41.821Z,12.82
2023-02-13T06:55:15.927Z,11.23
2023-02-13T07:00:43.912Z,10.65
2023-02-13T07:03:23.873Z,10.88
2023-02-13T07:06:10.834Z,11.15
2023-02-13T07:09:01.822Z,11.30
2023-02-13T07:11:48.826Z,11.77
2023-02-13T07:17:17.814Z,11.35
2023-02-13T07:19:57.909Z,10.98
2023-02-13T07:22:44.819Z,11.07
2023-02-13T07:28:13.902Z,11.20
2023-02-13T07:30:56.312Z,11.32
2023-02-13T07:33:42.836Z,11.93
2023-02-13T07:39:09.838Z,11.80
2023-02-13T07:44:43.810Z,11.63
2023-02-13T07:47:23.896Z,11.77
2023-02-13T07:50:12.821Z,12.38
2023-02-13T07:52:59.944Z,12.10
2023-02-13T07:58:26.899Z,11.27
2023-02-13T08:01:15.840Z,12.10
2023-02-13T08:03:56.960Z,11.35
2023-02-13T08:06:46.837Z,11.52
2023-02-13T08:09:46.467Z,11.68
2023-02-13T08:12:32.837Z,11.55
2023-02-13T08:17:59.842Z,12.20
2023-02-13T08:23:26.910Z,11.50
2023-02-13T08:28:54.323Z,11.35
2023-02-13T08:31:40.856Z,12.10
2023-02-13T08:37:08.862Z,11.88
2023-02-13T08:39:49.337Z,11.95
2023-02-13T08:42:35.819Z,11.88
2023-02-13T08:48:02.823Z,11.60
2023-02-13T08:53:29.831Z,12.55
2023-02-13T08:56:17.032Z,10.90
2023-02-13T08:58:56.841Z,9.90
2023-02-13T09:01:43.908Z,10.68
2023-02-13T09:07:10.859Z,10.02
2023-02-13T09:12:37.850Z,10.70
2023-02-13T09:18:04.839Z,11.05
2023-02-13T09:23:32.842Z,10.23
2023-02-13T09:26:20.959Z,10.98
2023-02-13T09:29:07.821Z,10.20
2023-02-13T09:34:34.849Z,9.93
2023-02-13T09:37:14.905Z,10.38
2023-02-13T09:40:01.833Z,10.45
2023-02-13T09:45:29.389Z,10.35
2023-02-13T09:48:15.830Z,10.25
2023-02-13T09:53:43.562Z,10.70
2023-02-13T09:56:44.852Z,10.70
2023-02-13T09:59:43.850Z,10.15
2023-02-13T10:02:42.518Z,10.73
2023-02-13T10:05:49.839Z,9.57
2023-02-13T10:08:54.859Z,10.18
2023-02-13T10:12:21.845Z,10.38
2023-02-13T10:15:21.863Z,10.77
2023-02-13T10:18:22.926Z,10.18
2023-02-13T10:21:11.824Z,10.60
2023-02-13T10:23:57.880Z,9.93
2023-02-13T10:26:51.833Z,10.40
2023-02-13T10:30:04.175Z,10.43
2023-02-13T10:33:25.833Z,11.10
2023-02-13T10:36:19.842Z,10.18
2023-02-13T10:39:12.900Z,10.23
2023-02-13T10:44:47.906Z,10.63
2023-02-13T10:47:41.862Z,10.60
2023-02-13T10:50:46.872Z,10.02
2023-02-13T10:53:42.940Z,9.77
2023-02-13T10:56:29.830Z,9.55
2023-02-13T10:59:40.870Z,10.40
2023-02-13T11:02:34.836Z,9.90
2023-02-13T11:05:25.842Z,10.00
2023-02-13T11:08:34.330Z,9.85
2023-02-13T11:11:45.827Z,10.02
2023-02-13T11:14:33.843Z,10.18
2023-02-13T11:17:30.851Z,9.95
2023-02-13T11:20:40.855Z,10.43
2023-02-13T11:23:46.850Z,11.13
2023-02-13T11:26:35.027Z,10.52
2023-02-13T11:29:44.850Z,10.73
2023-02-13T11:32:37.832Z,10.60
2023-02-13T11:35:46.890Z,10.55
2023-02-13T11:38:33.856Z,9.93
2023-02-13T11:41:24.904Z,11.13
2023-02-13T11:44:11.834Z,10.15
2023-02-13T11:46:57.960Z,10.00
2023-02-13T11:49:45.855Z,10.65
2023-02-13T11:52:44.875Z,9.95
2023-02-13T11:55:38.859Z,10.13
2023-02-13T11:58:22.022Z,9.80
2023-02-13T12:01:26.876Z,9.90
2023-02-13T12:04:12.002Z,10.00
2023-02-13T12:07:24.884Z,9.80
2023-02-13T12:10:35.842Z,10.05
2023-02-13T12:13:45.876Z,9.60
2023-02-13T12:16:58.863Z,9.38
2023-02-13T12:19:50.855Z,10.05
2023-02-13T12:23:13.897Z,9.13
2023-02-13T12:26:14.870Z,10.07
2023-02-13T12:29:47.863Z,9.10
2023-02-13T12:32:43.036Z,9.32
2023-02-13T12:35:40.840Z,9.18
2023-02-13T12:38:52.913Z,8.80
2023-02-13T12:41:53.860Z,8.90
2023-02-13T12:45:19.867Z,8.40
2023-02-13T12:48:15.861Z,9.60
2023-02-13T12:51:05.913Z,9.10
2023-02-13T12:54:07.866Z,8.25
2023-02-13T12:57:18.878Z,9.25
2023-02-13T13:00:07.923Z,8.35
2023-02-13T13:03:22.847Z,8.40
2023-02-13T13:06:15.918Z,8.50
2023-02-13T13:09:24.913Z,8.30
2023-02-13T13:12:22.924Z,8.02
2023-02-13T13:15:15.865Z,8.38
2023-02-13T13:21:30.921Z,8.05
2023-02-13T13:24:20.893Z,8.30
2023-02-13T13:27:03.293Z,8.40
2023-02-13T13:29:54.871Z,7.72
2023-02-13T13:32:35.918Z,7.72
2023-02-13T13:35:25.868Z,7.32
2023-02-13T13:38:27.935Z,7.57
2023-02-13T13:41:45.851Z,7.50
2023-02-13T13:44:47.953Z,7.32
2023-02-13T13:47:34.874Z,7.70
2023-02-13T13:50:43.630Z,7.60
2023-02-13T13:53:30.874Z,7.35
2023-02-13T13:56:11.985Z,7.40
2023-02-13T13:58:58.916Z,7.70
2023-02-13T14:01:39.001Z,8.38
2023-02-13T14:04:44.876Z,7.75
2023-02-13T14:07:30.941Z,7.72
2023-02-13T14:10:31.890Z,7.72
2023-02-13T14:13:19.866Z,7.85
2023-02-13T14:16:07.948Z,8.30
2023-02-13T14:18:54.088Z,7.63
2023-02-13T14:21:40.861Z,8.95
2023-02-13T14:24:20.926Z,7.85
2023-02-13T14:27:07.870Z,8.20
2023-02-13T14:29:54.985Z,8.25
2023-02-13T14:32:43.873Z,8.80
2023-02-13T14:35:31.940Z,7.90
2023-02-13T14:38:30.882Z,8.45
2023-02-13T14:43:59.892Z,8.20
2023-02-13T14:46:48.895Z,8.23
2023-02-13T14:49:39.895Z,8.15
2023-02-13T14:52:27.677Z,8.38
2023-02-13T14:55:23.889Z,7.57
2023-02-13T14:58:26.995Z,8.13
2023-02-13T15:01:28.941Z,7.95
2023-02-13T15:04:48.965Z,8.00
2023-02-13T15:07:41.856Z,8.77
2023-02-13T15:13:38.554Z,7.78
2023-02-13T15:16:20.912Z,8.32
2023-02-13T15:19:08.892Z,7.25
2023-02-13T15:21:56.975Z,8.25
2023-02-13T15:24:52.873Z,8.52
2023-02-13T15:27:36.969Z,8.00
2023-02-13T15:30:35.885Z,8.38
2023-02-13T15:33:36.004Z,8.30
2023-02-13T15:36:26.951Z,7.45
2023-02-13T15:39:10.873Z,7.55
2023-02-13T15:41:54.909Z,7.65
2023-02-13T15:44:47.888Z,8.00
2023-02-13T15:50:15.886Z,6.80
2023-02-13T15:53:03.918Z,7.20
2023-02-13T15:55:44.895Z,7.70
2023-02-13T15:58:30.371Z,7.70
2023-02-13T16:01:20.933Z,7.40
2023-02-13T16:04:07.041Z,7.57
2023-02-13T16:06:58.898Z,7.88
2023-02-13T16:09:39.635Z,7.93
2023-02-13T16:12:38.869Z,7.78
2023-02-13T16:15:21.390Z,8.07
2023-02-13T16:18:08.888Z,8.18
2023-02-13T16:20:54.973Z,7.82
2023-02-13T16:23:41.878Z,7.72
2023-02-13T16:26:22.492Z,7.63
2023-02-13T16:29:08.897Z,8.23
2023-02-13T16:31:50.916Z,7.10
2023-02-13T16:34:43.886Z,7.82
2023-02-13T16:40:41.941Z,7.25
2023-02-13T16:43:47.738Z,7.45
2023-02-13T16:46:54.895Z,7.35
2023-02-13T16:49:43.889Z,7.90
2023-02-13T16:52:34.916Z,7.72
2023-02-13T16:55:29.896Z,7.50
2023-02-13T16:58:11.951Z,7.90
2023-02-13T17:00:59.220Z,8.38
2023-02-13T17:03:39.941Z,7.10
2023-02-13T17:06:26.902Z,7.63
2023-02-13T17:09:06.953Z,8.05
2023-02-13T17:12:05.029Z,7.65
2023-02-13T17:14:45.931Z,7.53
2023-02-13T17:17:36.109Z,7.88
2023-02-13T17:20:19.686Z,8.23
2023-02-13T17:23:07.913Z,7.45
2023-02-13T17:25:49.729Z,7.47
2023-02-13T17:28:38.890Z,7.70
2023-02-13T17:31:25.984Z,8.13
2023-02-13T17:34:06.269Z,8.80
2023-02-13T17:36:52.896Z,9.07
2023-02-13T17:39:33.000Z,8.32
2023-02-13T17:42:31.894Z,7.88
2023-02-13T17:45:11.978Z,8.70
2023-02-13T17:47:58.886Z,8.80
2023-02-13T17:50:40.976Z,9.52
2023-02-13T17:53:30.966Z,9.73
2023-02-13T17:56:11.326Z,9.00
2023-02-13T17:58:57.916Z,8.60
2023-02-13T18:01:38.013Z,8.93
2023-02-13T18:04:25.924Z,8.55
2023-02-13T18:07:12.921Z,8.57
2023-02-13T18:09:59.902Z,9.23
2023-02-13T18:12:54.909Z,9.57
2023-02-13T18:15:40.047Z,9.30
2023-02-13T18:18:28.896Z,9.20
2023-02-13T18:21:15.944Z,8.90
2023-02-13T18:26:39.382Z,10.23
2023-02-13T18:29:25.904Z,9.48
2023-02-13T18:32:14.972Z,9.32
2023-02-13T18:34:54.957Z,9.30
2023-02-13T18:37:42.904Z,10.65
2023-02-13T18:40:22.986Z,9.85
2023-02-13T18:43:09.913Z,9.82
2023-02-13T18:45:50.116Z,10.38
2023-02-13T18:48:38.894Z,10.23
2023-02-13T18:51:19.126Z,10.38
2023-02-13T18:54:05.910Z,10.73
2023-02-13T18:56:45.990Z,10.88
2023-02-13T18:59:32.908Z,11.63
2023-02-13T19:04:59.906Z,11.13
2023-02-13T19:10:40.919Z,10.95
2023-02-13T19:13:27.888Z,11.40
2023-02-13T19:16:17.010Z,12.30
2023-02-13T19:19:07.896Z,11.27
2023-02-13T19:21:54.933Z,11.52
2023-02-13T19:24:41.978Z,12.48
2023-02-13T19:30:02.509Z,12.68
2023-02-13T19:32:48.909Z,12.65
2023-02-13T19:38:15.900Z,12.32
2023-02-13T19:41:02.908Z,13.20
2023-02-13T19:46:35.942Z,12.32
2023-02-13T19:49:20.718Z,13.40
2023-02-13T19:52:09.910Z,13.65
2023-02-13T19:54:57.159Z,12.60
2023-02-13T20:00:24.920Z,13.25
2023-02-13T20:03:11.956Z,13.48
2023-02-13T20:08:45.934Z,13.43
2023-02-13T20:14:17.921Z,15.73
2023-02-13T20:16:58.322Z,14.20
2023-02-13T20:19:44.892Z,14.77
2023-02-13T20:25:11.938Z,14.73
2023-02-13T20:30:39.006Z,14.95
2023-02-13T20:36:21.924Z,14.20
2023-02-13T20:39:04.949Z,15.00
2023-02-13T20:41:56.908Z,14.18
2023-02-13T20:44:43.898Z,15.23
2023-02-13T20:50:10.964Z,15.20
2023-02-13T20:52:57.938Z,15.00
2023-02-13T20:58:24.900Z,15.38
2023-02-13T21:04:00.934Z,14.85
2023-02-13T21:06:43.039Z,15.40
2023-02-13T21:09:29.902Z,15.27
2023-02-13T21:14:56.909Z,14.63
2023-02-13T21:17:43.902Z,15.15
2023-02-13T21:23:17.995Z,15.18
2023-02-13T21:28:45.903Z,15.98
2023-02-13T21:31:32.193Z,15.98
2023-02-13T21:34:19.910Z,16.52
2023-02-13T21:37:06.915Z,16.45
2023-02-13T21:42:33.974Z,16.73
2023-02-13T21:45:20.928Z,16.38
2023-02-13T21:50:48.902Z,17.13
2023-02-13T21:56:24.237Z,16.88
2023-02-13T21:59:04.934Z,16.85
2023-02-13T22:04:45.934Z,16.73
2023-02-13T22:07:52.953Z,17.90
2023-02-13T22:10:32.936Z,17.27
2023-02-13T22:13:20.233Z,17.80
2023-02-13T22:18:57.946Z,18.10
2023-02-13T22:24:33.937Z,19.92
2023-02-13T22:27:13.989Z,18.75
2023-02-13T22:30:00.982Z,18.48
2023-02-13T22:32:41.061Z,17.73
2023-02-13T22:35:27.919Z,18.58
2023-02-13T22:38:08.058Z,19.25
2023-02-13T22:40:54.924Z,19.80
2023-02-13T22:43:34.974Z,18.65
2023-02-13T22:46:28.025Z,18.42
2023-02-13T22:49:14.933Z,18.83
2023-02-13T22:52:01.921Z,18.73
2023-02-13T22:54:41.996Z,20.23
2023-02-13T22:57:28.934Z,19.15
2023-02-13T23:00:09.980Z,19.08
2023-02-13T23:02:57.912Z,17.98
2023-02-13T23:05:37.961Z,18.25
2023-02-13T23:08:24.909Z,17.40
2023-02-13T23:11:23.706Z,19.58
2023-02-13T23:14:10.922Z,17.50
2023-02-13T23:17:09.431Z,18.00
2023-02-13T23:19:55.918Z,18.48
2023-02-13T23:22:35.995Z,18.75
2023-02-13T23:25:23.933Z,18.70
2023-02-13T23:28:03.960Z,18.15
2023-02-13T23:30:50.986Z,18.55
2023-02-13T23:33:30.954Z,19.30
2023-02-13T23:36:17.930Z,20.65
2023-02-13T23:41:44.893Z,19.17
2023-02-13T23:44:25.026Z,19.33
2023-02-13T23:47:11.918Z,19.23
2023-02-13T23:49:52.285Z,20.13
2023-02-13T23:52:38.910Z,20.10
2023-02-13T23:55:25.937Z,21.42
